createdAt,value
2023-02-28T00:00:00.698Z,102880
2023-02-28T00:01:00.633Z,102880
2023-02-28T00:02:00.685Z,102880
2023-02-28T00:03:00.746Z,102880
2023-02-28T00:04:00.800Z,102880
2023-02-28T00:05:00.670Z,102880
2023-02-28T00:06:02.906Z,102870
2023-02-28T00:07:00.638Z,102870
2023-02-28T00:08:00.679Z,102880
2023-02-28T00:09:00.939Z,102880
2023-02-28T00:10:00.681Z,102880
2023-02-28T00:11:01.942Z,102880
2023-02-28T00:12:00.653Z,102870
2023-02-28T00:13:02.168Z,102870
2023-02-28T00:14:00.741Z,102870
2023-02-28T00:15:01.246Z,102870
2023-02-28T00:16:02.675Z,102870
2023-02-28T00:17:00.733Z,102870
2023-02-28T00:18:01.414Z,102880
2023-02-28T00:19:00.658Z,102880
2023-02-28T00:20:00.668Z,102870
2023-02-28T00:21:00.959Z,102870
2023-02-28T00:22:00.645Z,102870
2023-02-28T00:23:00.664Z,102870
2023-02-28T00:24:00.671Z,102870
2023-02-28T00:25:00.661Z,102870
2023-02-28T00:26:00.890Z,102870
2023-02-28T00:27:00.667Z,102870
2023-02-28T00:28:00.640Z,102880
2023-02-28T00:29:00.671Z,102880
2023-02-28T00:30:00.738Z,102870
2023-02-28T00:31:00.684Z,102870
2023-02-28T00:32:00.818Z,102870
2023-02-28T00:33:00.664Z,102870
2023-02-28T00:34:00.705Z,102870
2023-02-28T00:35:00.877Z,102870
2023-02-28T00:36:01.473Z,102870
2023-02-28T00:37:00.661Z,102870
2023-02-28T00:38:00.699Z,102870
2023-02-28T00:39:00.680Z,102870
2023-02-28T00:40:00.720Z,102870
2023-02-28T00:41:00.770Z,102870
2023-02-28T00:42:00.933Z,102870
2023-02-28T00:43:00.696Z,102870
2023-02-28T00:44:00.670Z,102870
2023-02-28T00:45:00.660Z,102870
2023-02-28T00:46:00.958Z,102860
2023-02-28T00:47:00.673Z,102860
2023-02-28T00:48:00.669Z,102860
2023-02-28T00:49:00.708Z,102860
2023-02-28T00:50:00.761Z,102860
2023-02-28T00:51:00.828Z,102860
2023-02-28T00:52:00.638Z,102860
2023-02-28T00:53:00.669Z,102860
2023-02-28T00:54:00.681Z,102870
2023-02-28T00:55:00.675Z,102870
2023-02-28T00:56:00.713Z,102860
2023-02-28T00:57:00.967Z,102860
2023-02-28T00:58:00.668Z,102860
2023-02-28T00:59:00.639Z,102860
2023-02-28T01:00:00.710Z,102870
2023-02-28T01:01:00.654Z,102870
2023-02-28T01:02:00.776Z,102870
2023-02-28T01:03:00.647Z,102870
2023-02-28T01:04:00.639Z,102870
2023-02-28T01:05:00.705Z,102870
2023-02-28T01:06:00.793Z,102870
2023-02-28T01:07:00.696Z,102870
2023-02-28T01:08:00.678Z,102870
2023-02-28T01:09:00.662Z,102870
2023-02-28T01:10:00.675Z,102880
2023-02-28T01:11:07.108Z,102880
2023-02-28T01:12:00.655Z,102880
2023-02-28T01:13:00.668Z,102880
2023-02-28T01:14:01.172Z,102880
2023-02-28T01:15:00.638Z,102880
2023-02-28T01:16:00.751Z,102880
2023-02-28T01:17:00.937Z,102880
2023-02-28T01:18:00.662Z,102890
2023-02-28T01:19:00.643Z,102890
2023-02-28T01:20:00.657Z,102890
2023-02-28T01:21:04.656Z,102890
2023-02-28T01:22:02.005Z,102890
2023-02-28T01:23:00.675Z,102890
2023-02-28T01:24:00.981Z,102880
2023-02-28T01:25:00.718Z,102880
2023-02-28T01:26:09.268Z,102890
2023-02-28T01:27:00.686Z,102890
2023-02-28T01:28:00.749Z,102890
2023-02-28T01:29:00.710Z,102890
2023-02-28T01:30:00.664Z,102890
2023-02-28T01:31:01.288Z,102890
2023-02-28T01:32:00.773Z,102880
2023-02-28T01:33:00.664Z,102880
2023-02-28T01:34:00.800Z,102900
2023-02-28T01:35:00.689Z,102900
2023-02-28T01:36:02.998Z,102890
2023-02-28T01:37:00.651Z,102890
2023-02-28T01:38:06.903Z,102880
2023-02-28T01:39:00.695Z,102880
2023-02-28T01:40:00.677Z,102880
2023-02-28T01:41:00.676Z,102880
2023-02-28T01:42:00.658Z,102880
2023-02-28T01:43:00.678Z,102880
2023-02-28T01:44:03.417Z,102880
2023-02-28T01:45:01.675Z,102880
2023-02-28T01:46:00.783Z,102870
2023-02-28T01:47:00.645Z,102870
2023-02-28T01:48:03.778Z,102870
2023-02-28T01:49:01.666Z,102870
2023-02-28T01:50:01.991Z,102870
2023-02-28T01:51:03.879Z,102870
2023-02-28T01:52:00.850Z,102870
2023-02-28T01:53:04.392Z,102870
2023-02-28T01:54:03.785Z,102860
2023-02-28T01:55:01.890Z,102860
2023-02-28T01:56:03.376Z,102860
2023-02-28T01:57:03.811Z,102860
2023-02-28T01:58:02.217Z,102860
2023-02-28T01:59:01.125Z,102860
2023-02-28T02:00:02.055Z,102860
2023-02-28T02:01:00.906Z,102860
2023-02-28T02:02:01.350Z,102870
2023-02-28T02:03:04.871Z,102870
2023-02-28T02:04:02.243Z,102870
2023-02-28T02:05:04.256Z,102870
2023-02-28T02:06:01.965Z,102870
2023-02-28T02:07:01.203Z,102870
2023-02-28T02:08:04.055Z,102870
2023-02-28T02:09:00.941Z,102870
2023-02-28T02:10:10.616Z,102860
2023-02-28T02:11:01.800Z,102860
2023-02-28T02:12:06.897Z,102860
2023-02-28T02:13:07.995Z,102860
2023-02-28T02:14:10.586Z,102860
2023-02-28T02:15:04.568Z,102860
2023-02-28T02:16:10.649Z,102850
2023-02-28T02:17:07.902Z,102850
2023-02-28T02:18:05.132Z,102850
2023-02-28T02:19:10.570Z,102850
2023-02-28T02:20:01.693Z,102860
2023-02-28T02:21:00.674Z,102860
2023-02-28T02:22:10.624Z,102850
2023-02-28T02:23:01.661Z,102850
2023-02-28T02:24:10.576Z,102860
2023-02-28T02:25:10.582Z,102860
2023-02-28T02:26:10.579Z,102860
2023-02-28T02:27:03.896Z,102860
2023-02-28T02:28:01.654Z,102850
2023-02-28T02:29:01.669Z,102850
2023-02-28T02:30:10.605Z,102860
2023-02-28T02:31:10.600Z,102860
2023-02-28T02:32:10.655Z,102850
2023-02-28T02:33:01.664Z,102850
2023-02-28T02:34:00.640Z,102850
2023-02-28T02:35:03.933Z,102850
2023-02-28T02:36:06.236Z,102860
2023-02-28T02:37:00.624Z,102860
2023-02-28T02:38:08.854Z,102850
2023-02-28T02:39:10.592Z,102850
2023-02-28T02:40:10.600Z,102850
2023-02-28T02:41:06.197Z,102850
2023-02-28T02:42:03.674Z,102850
2023-02-28T02:43:01.678Z,102850
2023-02-28T02:44:05.415Z,102850
2023-02-28T02:45:07.060Z,102850
2023-02-28T02:46:04.109Z,102850
2023-02-28T02:47:06.791Z,102850
2023-02-28T02:48:01.253Z,102850
2023-02-28T02:49:03.309Z,102850
2023-02-28T02:50:02.546Z,102850
2023-02-28T02:51:03.713Z,102850
2023-02-28T02:52:03.123Z,102850
2023-02-28T02:53:01.879Z,102850
2023-02-28T02:54:10.595Z,102850
2023-02-28T02:55:02.097Z,102850
2023-02-28T02:56:02.064Z,102850
2023-02-28T02:57:03.137Z,102850
2023-02-28T02:58:03.317Z,102850
2023-02-28T02:59:02.874Z,102850
2023-02-28T03:00:01.847Z,102850
2023-02-28T03:01:01.907Z,102850
2023-02-28T03:02:04.038Z,102860
2023-02-28T03:03:01.159Z,102860
2023-02-28T03:04:02.877Z,102860
2023-02-28T03:05:02.465Z,102860
2023-02-28T03:06:01.206Z,102860
2023-02-28T03:07:00.702Z,102860
2023-02-28T03:08:02.792Z,102850
2023-02-28T03:09:00.969Z,102850
2023-02-28T03:10:00.677Z,102850
2023-02-28T03:11:02.537Z,102850
2023-02-28T03:12:01.552Z,102850
2023-02-28T03:13:08.881Z,102850
2023-02-28T03:14:10.536Z,102850
2023-02-28T03:15:08.041Z,102850
2023-02-28T03:16:10.602Z,102850
2023-02-28T03:17:10.569Z,102850
2023-02-28T03:18:05.987Z,102860
2023-02-28T03:19:10.590Z,102860
2023-02-28T03:20:10.569Z,102860
2023-02-28T03:21:06.361Z,102860
2023-02-28T03:22:09.575Z,102850
2023-02-28T03:23:07.387Z,102850
2023-02-28T03:24:10.596Z,102850
2023-02-28T03:25:00.616Z,102850
2023-02-28T03:26:04.497Z,102850
2023-02-28T03:27:08.792Z,102850
2023-02-28T03:28:04.793Z,102850
2023-02-28T03:29:10.567Z,102850
2023-02-28T03:30:03.078Z,102850
2023-02-28T03:31:06.836Z,102850
2023-02-28T03:32:04.470Z,102850
2023-02-28T03:33:00.647Z,102850
2023-02-28T03:34:05.701Z,102850
2023-02-28T03:35:06.207Z,102850
2023-02-28T03:36:03.988Z,102850
2023-02-28T03:37:03.705Z,102850
2023-02-28T03:38:05.115Z,102850
2023-02-28T03:39:06.628Z,102850
2023-02-28T03:40:04.696Z,102860
2023-02-28T03:41:06.186Z,102860
2023-02-28T03:42:05.637Z,102850
2023-02-28T03:43:03.483Z,102850
2023-02-28T03:44:03.772Z,102850
2023-02-28T03:45:03.885Z,102850
2023-02-28T03:46:02.937Z,102850
2023-02-28T03:47:04.070Z,102850
2023-02-28T03:48:00.627Z,102860
2023-02-28T03:49:03.549Z,102860
2023-02-28T03:50:05.589Z,102850
2023-02-28T03:51:02.797Z,102850
2023-02-28T03:52:02.126Z,102860
2023-02-28T03:53:03.521Z,102860
2023-02-28T03:54:04.468Z,102860
2023-02-28T03:55:03.914Z,102860
2023-02-28T03:56:07.278Z,102850
2023-02-28T03:57:05.547Z,102850
2023-02-28T03:58:05.440Z,102850
2023-02-28T03:59:04.807Z,102850
2023-02-28T04:00:04.432Z,102840
2023-02-28T04:01:10.601Z,102840
2023-02-28T04:02:01.141Z,102850
2023-02-28T04:03:00.945Z,102850
2023-02-28T04:04:00.995Z,102840
2023-02-28T04:05:00.860Z,102840
2023-02-28T04:06:00.722Z,102840
2023-02-28T04:07:02.048Z,102840
2023-02-28T04:08:05.014Z,102840
2023-02-28T04:09:01.310Z,102840
2023-02-28T04:10:00.681Z,102840
2023-02-28T04:11:03.335Z,102840
2023-02-28T04:12:00.675Z,102840
2023-02-28T04:13:00.644Z,102840
2023-02-28T04:14:01.111Z,102840
2023-02-28T04:15:00.666Z,102840
2023-02-28T04:16:00.726Z,102840
2023-02-28T04:17:00.646Z,102840
2023-02-28T04:18:00.636Z,102850
2023-02-28T04:19:01.514Z,102850
2023-02-28T04:20:00.661Z,102850
2023-02-28T04:21:00.656Z,102850
2023-02-28T04:22:00.697Z,102840
2023-02-28T04:23:00.699Z,102840
2023-02-28T04:24:00.938Z,102850
2023-02-28T04:25:00.664Z,102850
2023-02-28T04:26:00.674Z,102850
2023-02-28T04:27:01.021Z,102850
2023-02-28T04:28:00.646Z,102850
2023-02-28T04:29:01.562Z,102850
2023-02-28T04:30:00.714Z,102850
2023-02-28T04:31:02.308Z,102850
2023-02-28T04:32:01.359Z,102850
2023-02-28T04:33:00.694Z,102850
2023-02-28T04:34:00.790Z,102850
2023-02-28T04:35:00.657Z,102850
2023-02-28T04:36:01.894Z,102850
2023-02-28T04:37:12.275Z,102850
2023-02-28T04:38:00.647Z,102850
2023-02-28T04:39:00.651Z,102850
2023-02-28T04:40:01.409Z,102850
2023-02-28T04:41:00.647Z,102850
2023-02-28T04:42:00.699Z,102850
2023-02-28T04:43:00.659Z,102850
2023-02-28T04:44:00.873Z,102860
2023-02-28T04:45:01.555Z,102860
2023-02-28T04:46:01.992Z,102850
2023-02-28T04:47:00.660Z,102850
2023-02-28T04:48:00.667Z,102850
2023-02-28T04:49:00.649Z,102850
2023-02-28T04:50:00.629Z,102850
2023-02-28T04:51:02.157Z,102850
2023-02-28T04:52:00.639Z,102860
2023-02-28T04:53:00.671Z,102860
2023-02-28T04:54:00.635Z,102850
2023-02-28T04:55:00.655Z,102850
2023-02-28T04:56:00.700Z,102860
2023-02-28T04:57:00.684Z,102860
2023-02-28T04:58:00.672Z,102860
2023-02-28T04:59:00.659Z,102860
2023-02-28T05:00:00.670Z,102870
2023-02-28T05:01:02.993Z,102870
2023-02-28T05:02:00.652Z,102860
2023-02-28T05:03:00.865Z,102860
2023-02-28T05:04:01.363Z,102860
2023-02-28T05:05:00.687Z,102860
2023-02-28T05:06:00.640Z,102870
2023-02-28T05:07:00.927Z,102870
2023-02-28T05:08:00.631Z,102860
2023-02-28T05:09:00.671Z,102860
2023-02-28T05:10:00.631Z,102870
2023-02-28T05:11:01.135Z,102870
2023-02-28T05:12:00.760Z,102870
2023-02-28T05:13:00.634Z,102870
2023-02-28T05:14:01.153Z,102870
2023-02-28T05:15:00.656Z,102870
2023-02-28T05:16:00.714Z,102880
2023-02-28T05:17:00.651Z,102880
2023-02-28T05:18:00.634Z,102880
2023-02-28T05:19:00.703Z,102880
2023-02-28T05:20:13.397Z,102870
2023-02-28T05:21:00.645Z,102870
2023-02-28T05:22:00.663Z,102870
2023-02-28T05:23:01.234Z,102870
2023-02-28T05:24:02.296Z,102870
2023-02-28T05:25:00.657Z,102870
2023-02-28T05:26:00.645Z,102870
2023-02-28T05:27:00.799Z,102870
2023-02-28T05:28:00.630Z,102870
2023-02-28T05:29:00.650Z,102870
2023-02-28T05:30:00.626Z,102870
2023-02-28T05:31:00.645Z,102870
2023-02-28T05:32:00.750Z,102870
2023-02-28T05:33:00.670Z,102870
2023-02-28T05:34:00.703Z,102870
2023-02-28T05:35:00.627Z,102870
2023-02-28T05:36:00.666Z,102870
2023-02-28T05:37:00.657Z,102870
2023-02-28T05:38:00.670Z,102870
2023-02-28T05:39:00.738Z,102870
2023-02-28T05:40:01.113Z,102870
2023-02-28T05:41:04.400Z,102870
2023-02-28T05:42:00.648Z,102870
2023-02-28T05:43:00.645Z,102870
2023-02-28T05:44:00.682Z,102870
2023-02-28T05:45:00.652Z,102870
2023-02-28T05:46:02.749Z,102870
2023-02-28T05:47:00.818Z,102870
2023-02-28T05:48:00.645Z,102870
2023-02-28T05:49:00.738Z,102870
2023-02-28T05:50:00.804Z,102880
2023-02-28T05:51:00.912Z,102880
2023-02-28T05:52:00.646Z,102880
2023-02-28T05:53:00.639Z,102880
2023-02-28T05:54:00.945Z,102880
2023-02-28T05:55:00.653Z,102880
2023-02-28T05:56:00.700Z,102880
2023-02-28T05:57:00.649Z,102880
2023-02-28T05:58:00.631Z,102880
2023-02-28T05:59:00.659Z,102880
2023-02-28T06:00:00.829Z,102890
2023-02-28T06:01:10.574Z,102890
2023-02-28T06:02:00.703Z,102890
2023-02-28T06:03:00.690Z,102890
2023-02-28T06:04:01.199Z,102890
2023-02-28T06:05:00.627Z,102890
2023-02-28T06:06:00.678Z,102880
2023-02-28T06:07:00.644Z,102880
2023-02-28T06:08:00.669Z,102890
2023-02-28T06:09:00.678Z,102890
2023-02-28T06:10:00.656Z,102890
2023-02-28T06:11:02.928Z,102890
2023-02-28T06:12:01.932Z,102890
2023-02-28T06:13:01.077Z,102890
2023-02-28T06:14:00.996Z,102890
2023-02-28T06:15:00.750Z,102890
2023-02-28T06:16:01.413Z,102890
2023-02-28T06:17:00.930Z,102890
2023-02-28T06:18:00.657Z,102890
2023-02-28T06:19:01.632Z,102890
2023-02-28T06:20:00.664Z,102890
2023-02-28T06:21:00.656Z,102890
2023-02-28T06:22:00.724Z,102900
2023-02-28T06:23:00.635Z,102900
2023-02-28T06:24:00.907Z,102900
2023-02-28T06:25:00.690Z,102900
2023-02-28T06:26:00.636Z,102900
2023-02-28T06:27:00.634Z,102900
2023-02-28T06:28:00.664Z,102900
2023-02-28T06:29:00.701Z,102900
2023-02-28T06:30:00.695Z,102900
2023-02-28T06:31:05.653Z,102900
2023-02-28T06:32:01.058Z,102900
2023-02-28T06:33:00.661Z,102900
2023-02-28T06:34:00.651Z,102900
2023-02-28T06:35:00.683Z,102900
2023-02-28T06:36:00.810Z,102900
2023-02-28T06:37:00.684Z,102900
2023-02-28T06:38:00.722Z,102900
2023-02-28T06:39:00.669Z,102900
2023-02-28T06:40:00.647Z,102900
2023-02-28T06:41:00.864Z,102900
2023-02-28T06:42:00.771Z,102900
2023-02-28T06:43:00.668Z,102900
2023-02-28T06:44:00.679Z,102900
2023-02-28T06:45:00.794Z,102900
2023-02-28T06:46:01.688Z,102900
2023-02-28T06:47:01.412Z,102900
2023-02-28T06:48:00.650Z,102900
2023-02-28T06:49:00.660Z,102900
2023-02-28T06:50:00.640Z,102900
2023-02-28T06:51:10.599Z,102900
2023-02-28T06:52:01.076Z,102910
2023-02-28T06:53:00.676Z,102910
2023-02-28T06:54:00.766Z,102910
2023-02-28T06:55:00.766Z,102910
2023-02-28T06:56:04.787Z,102920
2023-02-28T06:57:00.662Z,102920
2023-02-28T06:58:00.649Z,102920
2023-02-28T06:59:00.856Z,102920
2023-02-28T07:00:02.197Z,102920
2023-02-28T07:01:00.932Z,102920
2023-02-28T07:02:00.983Z,102910
2023-02-28T07:03:00.714Z,102910
2023-02-28T07:04:00.682Z,102910
2023-02-28T07:05:00.746Z,102910
2023-02-28T07:06:00.892Z,102910
2023-02-28T07:07:00.647Z,102910
2023-02-28T07:08:00.809Z,102920
2023-02-28T07:09:00.655Z,102920
2023-02-28T07:10:00.774Z,102920
2023-02-28T07:11:00.748Z,102920
2023-02-28T07:12:00.642Z,102920
2023-02-28T07:13:00.675Z,102920
2023-02-28T07:14:00.629Z,102920
2023-02-28T07:15:00.672Z,102920
2023-02-28T07:16:03.782Z,102920
2023-02-28T07:17:00.664Z,102920
2023-02-28T07:18:00.635Z,102920
2023-02-28T07:19:00.703Z,102920
2023-02-28T07:20:00.730Z,102920
2023-02-28T07:21:02.785Z,102920
2023-02-28T07:22:00.661Z,102930
2023-02-28T07:23:00.652Z,102930
2023-02-28T07:24:00.677Z,102930
2023-02-28T07:25:00.700Z,102930
2023-02-28T07:26:00.641Z,102930
2023-02-28T07:27:00.640Z,102930
2023-02-28T07:28:00.649Z,102940
2023-02-28T07:29:00.658Z,102940
2023-02-28T07:30:00.745Z,102940
2023-02-28T07:31:05.126Z,102940
2023-02-28T07:32:00.698Z,102940
2023-02-28T07:33:00.626Z,102940
2023-02-28T07:34:00.681Z,102930
2023-02-28T07:35:00.627Z,102930
2023-02-28T07:36:01.602Z,102930
2023-02-28T07:37:00.656Z,102930
2023-02-28T07:38:00.670Z,102930
2023-02-28T07:39:00.649Z,102930
2023-02-28T07:40:00.650Z,102930
2023-02-28T07:41:00.772Z,102930
2023-02-28T07:42:03.770Z,102930
2023-02-28T07:43:01.314Z,102930
2023-02-28T07:44:00.789Z,102940
2023-02-28T07:45:00.881Z,102940
2023-02-28T07:46:02.028Z,102940
2023-02-28T07:47:00.769Z,102940
2023-02-28T07:48:00.657Z,102940
2023-02-28T07:49:00.724Z,102940
2023-02-28T07:50:00.674Z,102940
2023-02-28T07:51:00.718Z,102940
2023-02-28T07:52:00.676Z,102940
2023-02-28T07:53:00.789Z,102940
2023-02-28T07:54:00.774Z,102940
2023-02-28T07:55:00.701Z,102940
2023-02-28T07:56:01.373Z,102940
2023-02-28T07:57:00.670Z,102940
2023-02-28T07:58:00.645Z,102940
2023-02-28T07:59:00.648Z,102940
2023-02-28T08:00:00.918Z,102950
2023-02-28T08:01:08.540Z,102950
2023-02-28T08:02:00.706Z,102950
2023-02-28T08:03:00.667Z,102950
2023-02-28T08:04:00.653Z,102940
2023-02-28T08:05:00.894Z,102940
2023-02-28T08:06:00.966Z,102950
2023-02-28T08:07:00.690Z,102950
2023-02-28T08:08:00.653Z,102950
2023-02-28T08:09:00.772Z,102950
2023-02-28T08:10:00.672Z,102950
2023-02-28T08:11:01.800Z,102950
2023-02-28T08:12:00.669Z,102960
2023-02-28T08:13:00.678Z,102960
2023-02-28T08:14:00.665Z,102950
2023-02-28T08:15:00.700Z,102950
2023-02-28T08:16:01.508Z,102960
2023-02-28T08:17:00.729Z,102960
2023-02-28T08:18:00.664Z,102950
2023-02-28T08:19:00.658Z,102950
2023-02-28T08:20:00.670Z,102950
2023-02-28T08:21:05.610Z,102950
2023-02-28T08:22:00.674Z,102950
2023-02-28T08:23:00.664Z,102950
2023-02-28T08:24:00.877Z,102950
2023-02-28T08:25:00.662Z,102950
2023-02-28T08:26:00.979Z,102950
2023-02-28T08:27:00.643Z,102950
2023-02-28T08:28:00.696Z,102950
2023-02-28T08:29:01.766Z,102950
2023-02-28T08:30:00.708Z,102950
2023-02-28T08:31:00.698Z,102950
2023-02-28T08:32:00.842Z,102950
2023-02-28T08:33:00.782Z,102950
2023-02-28T08:34:04.953Z,102950
2023-02-28T08:35:00.731Z,102950
2023-02-28T08:36:00.744Z,102950
2023-02-28T08:37:00.680Z,102950
2023-02-28T08:38:00.689Z,102940
2023-02-28T08:39:01.008Z,102940
2023-02-28T08:40:00.716Z,102940
2023-02-28T08:41:02.172Z,102940
2023-02-28T08:42:07.319Z,102940
2023-02-28T08:43:00.645Z,102940
2023-02-28T08:44:00.686Z,102940
2023-02-28T08:45:00.725Z,102940
2023-02-28T08:46:01.038Z,102940
2023-02-28T08:47:00.671Z,102940
2023-02-28T08:48:00.740Z,102930
2023-02-28T08:49:00.662Z,102930
2023-02-28T08:50:00.699Z,102940
2023-02-28T08:51:08.003Z,102940
2023-02-28T08:52:00.680Z,102950
2023-02-28T08:53:00.672Z,102950
2023-02-28T08:54:01.128Z,102950
2023-02-28T08:55:00.707Z,102950
2023-02-28T08:56:02.326Z,102950
2023-02-28T08:57:00.660Z,102950
2023-02-28T08:58:00.675Z,102940
2023-02-28T08:59:00.631Z,102940
2023-02-28T09:00:00.767Z,102950
2023-02-28T09:01:07.143Z,102950
2023-02-28T09:02:00.673Z,102950
2023-02-28T09:03:00.677Z,102950
2023-02-28T09:04:00.646Z,102950
2023-02-28T09:05:00.641Z,102950
2023-02-28T09:06:00.953Z,102950
2023-02-28T09:07:00.677Z,102950
2023-02-28T09:08:00.637Z,102950
2023-02-28T09:09:01.181Z,102950
2023-02-28T09:10:00.671Z,102950
2023-02-28T09:11:02.431Z,102950
2023-02-28T09:12:00.661Z,102950
2023-02-28T09:13:00.637Z,102950
2023-02-28T09:14:01.168Z,102950
2023-02-28T09:15:01.062Z,102950
2023-02-28T09:16:01.743Z,102960
2023-02-28T09:17:00.717Z,102960
2023-02-28T09:18:00.628Z,102950
2023-02-28T09:19:00.853Z,102950
2023-02-28T09:20:00.673Z,102950
2023-02-28T09:21:02.717Z,102950
2023-02-28T09:22:00.661Z,102950
2023-02-28T09:23:00.674Z,102950
2023-02-28T09:24:00.638Z,102950
2023-02-28T09:25:00.666Z,102950
2023-02-28T09:26:00.670Z,102940
2023-02-28T09:27:05.026Z,102940
2023-02-28T09:28:00.911Z,102950
2023-02-28T09:29:00.695Z,102950
2023-02-28T09:30:00.703Z,102940
2023-02-28T09:31:00.759Z,102940
2023-02-28T09:32:00.754Z,102960
2023-02-28T09:33:00.682Z,102960
2023-02-28T09:34:00.751Z,102950
2023-02-28T09:35:00.659Z,102950
2023-02-28T09:36:02.049Z,102950
2023-02-28T09:37:00.777Z,102950
2023-02-28T09:38:00.688Z,102950
2023-02-28T09:39:00.709Z,102950
2023-02-28T09:40:00.679Z,102950
2023-02-28T09:41:02.814Z,102950
2023-02-28T09:42:01.782Z,102940
2023-02-28T09:43:00.631Z,102940
2023-02-28T09:44:02.721Z,102950
2023-02-28T09:45:01.808Z,102950
2023-02-28T09:46:10.656Z,102950
2023-02-28T09:47:05.174Z,102950
2023-02-28T09:48:03.857Z,102940
2023-02-28T09:49:04.181Z,102940
2023-02-28T09:50:10.569Z,102950
2023-02-28T09:51:03.294Z,102950
2023-02-28T09:52:03.990Z,102950
2023-02-28T09:53:03.786Z,102950
2023-02-28T09:54:02.180Z,102950
2023-02-28T09:55:10.566Z,102950
2023-02-28T09:56:03.119Z,102940
2023-02-28T09:57:04.769Z,102940
2023-02-28T09:58:01.390Z,102950
2023-02-28T09:59:10.596Z,102950
2023-02-28T10:00:10.586Z,102940
2023-02-28T10:01:09.402Z,102940
2023-02-28T10:02:01.658Z,102940
2023-02-28T10:03:10.593Z,102940
2023-02-28T10:04:08.240Z,102940
2023-02-28T10:05:05.232Z,102940
2023-02-28T10:06:00.647Z,102950
2023-02-28T10:07:02.217Z,102950
2023-02-28T10:08:03.323Z,102940
2023-02-28T10:09:06.025Z,102940
2023-02-28T10:10:02.861Z,102940
2023-02-28T10:11:02.509Z,102940
2023-02-28T10:12:04.518Z,102940
2023-02-28T10:13:02.306Z,102940
2023-02-28T10:14:09.501Z,102930
2023-02-28T10:15:01.504Z,102930
2023-02-28T10:16:05.981Z,102930
2023-02-28T10:17:08.602Z,102930
2023-02-28T10:18:09.287Z,102930
2023-02-28T10:19:04.109Z,102930
2023-02-28T10:20:04.697Z,102930
2023-02-28T10:21:00.709Z,102930
2023-02-28T10:22:09.394Z,102920
2023-02-28T10:23:09.062Z,102920
2023-02-28T10:24:04.320Z,102930
2023-02-28T10:25:02.222Z,102930
2023-02-28T10:26:05.501Z,102930
2023-02-28T10:27:01.860Z,102930
2023-02-28T10:28:05.132Z,102930
2023-02-28T10:29:00.879Z,102930
2023-02-28T10:30:01.600Z,102930
2023-02-28T10:31:00.877Z,102930
2023-02-28T10:32:02.198Z,102920
2023-02-28T10:33:00.782Z,102920
2023-02-28T10:34:00.665Z,102930
2023-02-28T10:35:10.603Z,102930
2023-02-28T10:36:01.372Z,102930
2023-02-28T10:37:00.757Z,102930
2023-02-28T10:38:03.200Z,102930
2023-02-28T10:39:00.659Z,102930
2023-02-28T10:40:00.715Z,102930
2023-02-28T10:41:05.458Z,102930
2023-02-28T10:42:00.660Z,102930
2023-02-28T10:43:02.565Z,102930
2023-02-28T10:44:10.570Z,102910
2023-02-28T10:45:10.591Z,102910
2023-02-28T10:46:09.571Z,102930
2023-02-28T10:47:00.695Z,102930
2023-02-28T10:48:02.221Z,102920
2023-02-28T10:49:05.197Z,102920
2023-02-28T10:50:01.394Z,102920
2023-02-28T10:51:01.248Z,102920
2023-02-28T10:52:00.900Z,102910
2023-02-28T10:53:07.475Z,102910
2023-02-28T10:54:02.312Z,102910
2023-02-28T10:55:10.568Z,102910
2023-02-28T10:56:00.625Z,102910
2023-02-28T10:57:10.566Z,102910
2023-02-28T10:58:00.747Z,102900
2023-02-28T10:59:03.006Z,102900
2023-02-28T11:00:10.602Z,102910
2023-02-28T11:01:00.663Z,102910
2023-02-28T11:02:00.729Z,102910
2023-02-28T11:03:00.701Z,102910
2023-02-28T11:04:01.065Z,102900
2023-02-28T11:05:00.731Z,102900
2023-02-28T11:06:06.394Z,102910
2023-02-28T11:07:03.180Z,102910
2023-02-28T11:08:06.325Z,102910
2023-02-28T11:09:02.889Z,102910
2023-02-28T11:10:00.720Z,102900
2023-02-28T11:11:04.481Z,102900
2023-02-28T11:12:01.783Z,102900
2023-02-28T11:13:01.381Z,102900
2023-02-28T11:14:05.380Z,102900
2023-02-28T11:15:03.730Z,102900
2023-02-28T11:16:03.942Z,102900
2023-02-28T11:17:10.564Z,102900
2023-02-28T11:18:10.563Z,102900
2023-02-28T11:19:01.587Z,102900
2023-02-28T11:20:04.343Z,102900
2023-02-28T11:21:01.553Z,102900
2023-02-28T11:22:02.435Z,102900
2023-02-28T11:23:01.991Z,102900
2023-02-28T11:24:04.022Z,102900
2023-02-28T11:25:02.332Z,102900
2023-02-28T11:26:02.074Z,102890
2023-02-28T11:27:00.660Z,102890
2023-02-28T11:28:02.032Z,102890
2023-02-28T11:29:10.565Z,102890
2023-02-28T11:30:00.880Z,102890
2023-02-28T11:31:00.665Z,102890
2023-02-28T11:32:03.477Z,102890
2023-02-28T11:33:10.643Z,102890
2023-02-28T11:34:00.670Z,102880
2023-02-28T11:35:10.577Z,102880
2023-02-28T11:36:02.681Z,102890
2023-02-28T11:37:01.299Z,102890
2023-02-28T11:38:00.902Z,102880
2023-02-28T11:39:07.582Z,102880
2023-02-28T11:40:00.782Z,102880
2023-02-28T11:41:00.639Z,102880
2023-02-28T11:42:10.589Z,102880
2023-02-28T11:43:05.085Z,102880
2023-02-28T11:44:03.928Z,102880
2023-02-28T11:45:10.556Z,102880
2023-02-28T11:46:03.927Z,102880
2023-02-28T11:47:04.953Z,102880
2023-02-28T11:48:10.567Z,102870
2023-02-28T11:49:10.585Z,102870
2023-02-28T11:50:10.578Z,102870
2023-02-28T11:51:06.408Z,102870
2023-02-28T11:52:04.697Z,102880
2023-02-28T11:53:04.301Z,102880
2023-02-28T11:54:10.592Z,102880
2023-02-28T11:55:03.907Z,102880
2023-02-28T11:56:00.641Z,102880
2023-02-28T11:57:06.552Z,102880
2023-02-28T11:58:08.151Z,102870
2023-02-28T11:59:09.251Z,102870
2023-02-28T12:00:06.350Z,102870
2023-02-28T12:01:00.634Z,102870
2023-02-28T12:02:01.675Z,102870
2023-02-28T12:03:10.646Z,102870
2023-02-28T12:04:10.581Z,102870
2023-02-28T12:05:09.569Z,102870
2023-02-28T12:06:00.656Z,102870
2023-02-28T12:07:09.528Z,102870
2023-02-28T12:08:00.618Z,102870
2023-02-28T12:09:10.591Z,102870
2023-02-28T12:10:09.149Z,102870
2023-02-28T12:11:01.648Z,102870
2023-02-28T12:12:10.593Z,102860
2023-02-28T12:13:05.279Z,102860
2023-02-28T12:14:00.655Z,102860
2023-02-28T12:15:08.045Z,102860
2023-02-28T12:16:01.724Z,102860
2023-02-28T12:17:10.594Z,102860
2023-02-28T12:18:10.600Z,102860
2023-02-28T12:19:01.649Z,102860
2023-02-28T12:20:09.192Z,102850
2023-02-28T12:21:03.934Z,102850
2023-02-28T12:22:10.597Z,102850
2023-02-28T12:23:10.378Z,102850
2023-02-28T12:24:00.673Z,102850
2023-02-28T12:25:10.597Z,102850
2023-02-28T12:26:06.291Z,102850
2023-02-28T12:27:02.437Z,102850
2023-02-28T12:28:00.767Z,102840